createdAt,value
2022-08-29T00:00:43.014Z,100321.22
2022-08-29T00:03:32.136Z,100319.59
2022-08-29T00:06:22.050Z,100324.19
2022-08-29T00:09:10.611Z,100311.28
2022-08-29T00:11:59.699Z,100319.84
2022-08-29T00:14:48.308Z,100319.72
2022-08-29T00:17:36.828Z,100311.53
2022-08-29T00:20:30.219Z,100318.09
2022-08-29T00:23:24.452Z,100305.03
2022-08-29T00:26:13.355Z,100293.63
2022-08-29T00:29:02.127Z,100321.72
2022-08-29T00:31:50.688Z,100323.63
2022-08-29T00:34:39.233Z,100329.28
2022-08-29T00:37:27.866Z,100323.53
2022-08-29T00:40:21.637Z,100335.19
2022-08-29T00:43:10.948Z,100322.44
2022-08-29T00:46:06.507Z,100331.09
2022-08-29T00:48:58.383Z,100329.84
2022-08-29T00:51:47.763Z,100323.34
2022-08-29T00:54:38.150Z,100326.88
2022-08-29T00:57:31.563Z,100314.91
2022-08-29T01:00:20.572Z,100241.13
2022-08-29T01:03:09.278Z,100331.59
2022-08-29T01:05:58.283Z,100317.53
2022-08-29T01:08:47.171Z,100323.44
2022-08-29T01:11:53.646Z,100319.22
2022-08-29T01:14:47.354Z,100320.06
2022-08-29T01:17:39.131Z,100321.50
2022-08-29T01:20:35.120Z,100331.97
2022-08-29T01:23:28.740Z,100330.66
2022-08-29T01:26:18.681Z,100334.56
2022-08-29T01:29:07.275Z,100343.78
2022-08-29T01:31:57.988Z,100335.81
2022-08-29T01:34:46.890Z,100346.63
2022-08-29T01:37:38.150Z,100346.16
2022-08-29T01:40:30.416Z,100323.72
2022-08-29T01:43:20.814Z,100356.06
2022-08-29T01:46:10.432Z,100347.16
2022-08-29T01:49:01.038Z,100351.13
2022-08-29T01:51:49.609Z,100351.59
2022-08-29T01:54:38.720Z,100311.13
2022-08-29T01:57:27.476Z,100350.91
2022-08-29T02:00:18.658Z,100350.69
2022-08-29T02:03:07.253Z,100349.50
2022-08-29T02:05:59.183Z,100351.38
2022-08-29T02:08:47.751Z,100346.34
2022-08-29T02:11:36.463Z,100358.59
2022-08-29T02:14:25.267Z,100351.28
2022-08-29T02:17:15.154Z,100350.91
2022-08-29T02:20:06.480Z,100354.41
2022-08-29T02:22:56.123Z,100348.31
2022-08-29T02:25:47.452Z,100349.97
2022-08-29T02:28:37.331Z,100350.09
2022-08-29T02:31:26.369Z,100354.09
2022-08-29T02:34:16.596Z,100325.25
2022-08-29T02:37:07.443Z,100360.53
2022-08-29T02:39:56.144Z,100356.44
2022-08-29T02:42:44.740Z,100357.97
2022-08-29T02:45:33.867Z,100352.19
2022-08-29T02:48:22.624Z,100363.38
2022-08-29T02:51:13.737Z,100355.59
2022-08-29T02:54:02.763Z,100358.78
2022-08-29T02:56:51.330Z,100362.78
2022-08-29T02:59:39.811Z,100361.84
2022-08-29T03:02:28.754Z,100364.78
2022-08-29T03:05:18.965Z,100363.94
2022-08-29T03:08:10.718Z,100361.22
2022-08-29T03:10:59.296Z,100368.78
2022-08-29T03:13:47.899Z,100363.22
2022-08-29T03:16:36.557Z,100364.75
2022-08-29T03:19:26.052Z,100359.22
2022-08-29T03:22:15.222Z,100365.00
2022-08-29T03:25:06.560Z,100352.97
2022-08-29T03:27:55.154Z,100360.38
2022-08-29T03:30:43.708Z,100357.69
2022-08-29T03:33:32.262Z,100345.19
2022-08-29T03:36:20.855Z,100355.91
2022-08-29T03:39:09.483Z,100354.88
2022-08-29T03:41:59.325Z,100362.84
2022-08-29T03:44:48.514Z,100192.94
2022-08-29T03:47:37.012Z,100356.84
2022-08-29T03:50:25.532Z,100360.81
2022-08-29T03:53:14.184Z,100352.38
2022-08-29T03:56:04.394Z,100362.19
2022-08-29T03:58:54.891Z,100363.50
2022-08-29T04:01:43.768Z,100354.22
2022-08-29T04:04:49.894Z,100359.00
2022-08-29T04:07:43.945Z,100349.13
2022-08-29T04:10:34.993Z,100348.78
2022-08-29T04:13:24.348Z,100360.91
2022-08-29T04:16:16.543Z,100373.31
2022-08-29T04:19:05.274Z,100366.63
2022-08-29T04:21:57.641Z,100370.38
2022-08-29T04:24:46.272Z,100369.66
2022-08-29T04:27:36.684Z,100369.91
2022-08-29T04:30:28.088Z,100365.59
2022-08-29T04:33:22.526Z,100362.50
2022-08-29T04:36:14.919Z,100377.44
2022-08-29T04:39:04.651Z,100379.34
2022-08-29T04:41:53.179Z,100382.50
2022-08-29T04:44:41.733Z,100376.25
2022-08-29T04:47:30.974Z,100376.19
2022-08-29T04:50:23.456Z,100376.75
2022-08-29T04:53:12.006Z,100373.81
2022-08-29T04:56:02.451Z,100383.97
2022-08-29T04:58:52.004Z,100386.69
2022-08-29T05:01:42.435Z,100383.81
2022-08-29T05:04:31.117Z,100393.19
2022-08-29T05:07:21.869Z,100390.50
2022-08-29T05:10:13.495Z,100395.09
2022-08-29T05:13:02.052Z,100396.97
2022-08-29T05:15:51.262Z,100390.38
2022-08-29T05:18:40.133Z,100404.63
2022-08-29T05:21:35.248Z,100407.28
2022-08-29T05:24:25.971Z,100398.69
2022-08-29T05:27:17.431Z,100409.13
2022-08-29T05:30:07.225Z,100404.06
2022-08-29T05:32:55.802Z,100411.59
2022-08-29T05:35:45.244Z,100418.06
2022-08-29T05:38:33.760Z,100398.34
2022-08-29T05:41:23.638Z,100408.56
2022-08-29T05:44:12.141Z,100418.31
2022-08-29T05:47:01.111Z,100414.66
2022-08-29T05:49:50.309Z,100389.69
2022-08-29T05:52:38.899Z,100426.38
2022-08-29T05:55:27.444Z,100417.13
2022-08-29T05:58:18.301Z,100417.03
2022-08-29T06:01:07.055Z,100420.78
2022-08-29T06:03:56.184Z,100376.78
2022-08-29T06:06:44.848Z,100423.56
2022-08-29T06:09:33.468Z,100422.03
2022-08-29T06:12:22.094Z,100424.84
2022-08-29T06:15:14.437Z,100427.28
2022-08-29T06:18:03.172Z,100431.84
2022-08-29T06:20:51.751Z,100437.00
2022-08-29T06:23:42.093Z,100432.88
2022-08-29T06:26:31.436Z,100433.38
2022-08-29T06:29:19.999Z,100437.13
2022-08-29T06:32:09.888Z,100437.81
2022-08-29T06:34:58.584Z,100435.69
2022-08-29T06:37:47.115Z,100432.66
2022-08-29T06:40:35.713Z,100436.25
2022-08-29T06:43:24.329Z,100440.75
2022-08-29T06:46:21.393Z,100433.41
2022-08-29T06:49:13.340Z,100440.94
2022-08-29T06:52:02.049Z,100445.59
2022-08-29T06:54:50.566Z,100458.91
2022-08-29T06:57:45.317Z,100463.88
2022-08-29T07:00:33.840Z,100470.72
2022-08-29T07:03:23.000Z,100475.13
2022-08-29T07:06:13.300Z,100440.75
2022-08-29T07:09:01.848Z,100484.75
2022-08-29T07:11:50.626Z,100480.44
2022-08-29T07:14:39.180Z,100483.25
2022-08-29T07:17:27.692Z,100480.25
2022-08-29T07:20:16.623Z,100483.66
2022-08-29T07:23:06.587Z,100477.28
2022-08-29T07:25:57.287Z,100489.16
2022-08-29T07:28:47.621Z,100438.22
2022-08-29T07:31:36.537Z,100490.91
2022-08-29T07:34:25.068Z,100495.97
2022-08-29T07:37:13.681Z,100491.41
2022-08-29T07:40:04.781Z,100482.75
2022-08-29T07:42:53.253Z,100481.44
2022-08-29T07:45:41.871Z,100484.69
2022-08-29T07:48:30.419Z,100473.78
2022-08-29T07:51:21.725Z,100483.34
2022-08-29T07:54:11.113Z,100483.91
2022-08-29T07:57:01.044Z,100480.94
2022-08-29T07:59:50.109Z,100460.94
2022-08-29T08:02:38.705Z,100480.03
2022-08-29T08:05:28.074Z,100476.75
2022-08-29T08:08:16.669Z,100481.94
2022-08-29T08:11:05.685Z,100482.50
2022-08-29T08:13:57.432Z,100476.19
2022-08-29T08:16:46.222Z,100471.53
2022-08-29T08:19:34.879Z,100469.84
2022-08-29T08:22:23.430Z,100483.19
2022-08-29T08:25:12.008Z,100483.97
2022-08-29T08:28:00.565Z,100492.09
2022-08-29T08:30:50.646Z,100488.63
2022-08-29T08:33:40.022Z,100489.56
2022-08-29T08:36:30.656Z,100494.41
2022-08-29T08:39:19.917Z,100493.06
2022-08-29T08:42:14.256Z,100489.84
2022-08-29T08:45:08.161Z,100494.34
2022-08-29T08:48:01.156Z,100488.00
2022-08-29T08:50:54.885Z,100497.38
2022-08-29T08:53:45.301Z,100494.28
2022-08-29T08:56:36.833Z,100475.44
2022-08-29T08:59:30.085Z,100486.03
2022-08-29T09:02:35.386Z,100492.53
2022-08-29T09:05:39.456Z,100500.41
2022-08-29T09:08:34.421Z,100492.38
2022-08-29T09:11:29.859Z,100489.44
2022-08-29T09:14:33.604Z,100500.06
2022-08-29T09:17:26.179Z,100496.44
2022-08-29T09:20:18.521Z,100499.69
2022-08-29T09:23:14.555Z,100494.25
2022-08-29T09:26:03.264Z,100488.22
2022-08-29T09:28:52.355Z,100488.63
2022-08-29T09:31:41.531Z,100481.22
2022-08-29T09:34:56.984Z,100490.56
2022-08-29T09:37:44.658Z,100498.94
2022-08-29T09:40:50.942Z,100496.72
2022-08-29T09:43:48.264Z,100488.22
2022-08-29T09:46:38.968Z,100493.31
2022-08-29T09:49:27.573Z,100479.47
2022-08-29T09:52:18.128Z,100472.13
2022-08-29T09:55:22.643Z,100484.72
2022-08-29T09:58:31.039Z,100490.13
2022-08-29T10:01:23.973Z,100477.75
2022-08-29T10:04:37.113Z,100474.84
2022-08-29T10:07:27.988Z,100469.56
2022-08-29T10:10:19.116Z,100466.47
2022-08-29T10:13:11.791Z,100473.16
2022-08-29T10:16:09.110Z,100474.69
2022-08-29T10:19:00.476Z,100473.41
2022-08-29T10:21:56.781Z,100476.50
2022-08-29T10:24:56.000Z,100461.25
2022-08-29T10:27:48.602Z,100465.78
2022-08-29T10:30:43.252Z,100469.22
2022-08-29T10:33:49.039Z,100466.09
2022-08-29T10:36:39.150Z,100456.22
2022-08-29T10:39:36.795Z,100456.06
2022-08-29T10:42:26.967Z,100460.56
2022-08-29T10:45:18.260Z,100454.41
2022-08-29T10:48:11.387Z,100462.13
2022-08-29T10:51:13.676Z,100452.09
2022-08-29T10:54:12.968Z,100451.13
2022-08-29T10:57:02.776Z,100444.63
2022-08-29T10:59:56.879Z,100423.25
2022-08-29T11:02:48.976Z,100438.66
2022-08-29T11:05:43.861Z,100438.44
2022-08-29T11:08:36.426Z,100443.72
2022-08-29T11:11:25.712Z,100444.00
2022-08-29T11:14:23.118Z,100440.94
2022-08-29T11:17:14.824Z,100434.75
2022-08-29T11:20:09.547Z,100429.81
2022-08-29T11:23:01.438Z,100432.16
2022-08-29T11:25:51.739Z,100430.78
2022-08-29T11:31:44.291Z,100423.59
2022-08-29T11:34:43.221Z,100412.88
2022-08-29T11:37:49.285Z,100417.31
2022-08-29T11:40:48.447Z,100395.03
2022-08-29T11:43:42.026Z,100364.22
2022-08-29T11:46:37.401Z,100313.44
2022-08-29T11:49:33.917Z,100400.19
2022-08-29T11:52:26.362Z,100413.25
2022-08-29T11:55:25.420Z,100407.69
2022-08-29T11:58:46.600Z,100399.19
2022-08-29T12:02:00.607Z,100395.63
2022-08-29T12:04:54.956Z,100390.72
2022-08-29T12:07:48.183Z,100389.91
2022-08-29T12:10:53.083Z,100390.97
2022-08-29T12:14:04.806Z,100396.25
2022-08-29T12:16:53.756Z,100384.38
2022-08-29T12:19:47.631Z,100374.25
2022-08-29T12:23:00.521Z,100387.22
2022-08-29T12:26:09.618Z,100391.41
2022-08-29T12:29:10.366Z,100361.03
2022-08-29T12:32:23.383Z,100383.63
2022-08-29T12:35:24.056Z,100377.88
2022-08-29T12:38:24.386Z,100365.94
2022-08-29T12:41:30.512Z,100371.88
2022-08-29T12:44:27.293Z,100360.16
2022-08-29T12:47:22.172Z,100365.78
2022-08-29T12:50:17.615Z,100317.41
2022-08-29T12:53:07.675Z,100355.53
2022-08-29T12:55:58.427Z,100347.97
2022-08-29T12:58:55.839Z,100336.97
2022-08-29T13:01:48.730Z,100342.59
2022-08-29T13:04:38.930Z,100352.03
2022-08-29T13:07:29.024Z,100330.38
2022-08-29T13:10:20.063Z,100335.56
2022-08-29T13:13:12.521Z,100318.03
2022-08-29T13:16:03.558Z,100301.63
2022-08-29T13:19:09.994Z,100330.03
2022-08-29T13:22:04.116Z,100319.84
2022-08-29T13:25:04.040Z,100326.00
2022-08-29T13:28:01.117Z,100323.88
2022-08-29T13:31:31.255Z,100316.44
2022-08-29T13:34:22.518Z,100316.88
2022-08-29T13:37:30.208Z,100208.75
2022-08-29T13:40:36.686Z,100314.59
2022-08-29T13:43:32.314Z,100312.53
2022-08-29T13:46:27.619Z,100300.88
2022-08-29T13:49:23.080Z,100307.88
2022-08-29T13:52:12.695Z,100304.78
2022-08-29T13:55:02.511Z,100307.28
2022-08-29T13:57:54.116Z,100295.72
2022-08-29T14:00:43.727Z,100306.91
2022-08-29T14:03:33.033Z,100298.38
2022-08-29T14:06:25.513Z,100288.88
2022-08-29T14:09:18.052Z,100289.38
2022-08-29T14:12:07.267Z,100271.56
2022-08-29T14:14:55.862Z,100291.91
2022-08-29T14:17:45.697Z,100255.47
2022-08-29T14:20:34.538Z,100289.00
2022-08-29T14:23:24.508Z,100285.22
2022-08-29T14:26:14.105Z,100284.91
2022-08-29T14:29:03.635Z,100277.34
2022-08-29T14:31:53.881Z,100277.66
2022-08-29T14:34:50.944Z,100265.59
2022-08-29T14:37:40.452Z,100231.47
2022-08-29T14:40:32.276Z,100259.41
2022-08-29T14:43:20.984Z,100251.94
2022-08-29T14:46:09.662Z,100244.25
2022-08-29T14:48:58.285Z,100246.53
2022-08-29T14:51:47.025Z,100248.34
2022-08-29T14:54:35.696Z,100240.06
2022-08-29T14:57:25.657Z,100238.28
2022-08-29T15:00:17.898Z,100238.66
2022-08-29T15:03:07.986Z,100222.88
2022-08-29T15:05:56.656Z,100237.81
2022-08-29T15:08:45.793Z,100218.31
2022-08-29T15:11:34.429Z,100230.50
2022-08-29T15:14:24.621Z,100238.94
2022-08-29T15:17:13.560Z,100231.00
2022-08-29T15:23:12.218Z,100230.41
2022-08-29T15:26:02.697Z,100227.34
2022-08-29T15:28:51.539Z,100225.59
2022-08-29T15:31:41.504Z,100222.22
2022-08-29T15:34:31.307Z,100223.63
2022-08-29T15:37:20.041Z,100219.25
2022-08-29T15:40:13.118Z,100189.00
2022-08-29T15:43:02.626Z,100181.00
2022-08-29T15:45:51.240Z,100210.63
2022-08-29T15:48:41.548Z,100231.69
2022-08-29T15:51:30.188Z,100209.16
2022-08-29T15:54:19.289Z,100213.97
2022-08-29T15:57:08.087Z,100206.31
2022-08-29T15:59:58.892Z,100206.97
2022-08-29T16:02:47.817Z,100202.22
2022-08-29T16:05:40.219Z,100200.22
2022-08-29T16:08:29.750Z,100196.25
2022-08-29T16:11:18.473Z,100198.84
2022-08-29T16:14:41.053Z,100195.41
2022-08-29T16:17:16.007Z,100145.66
2022-08-29T16:20:05.935Z,100181.91
2022-08-29T16:22:56.374Z,100186.88
2022-08-29T16:25:44.938Z,100188.50
2022-08-29T16:28:33.518Z,100187.03
2022-08-29T16:31:22.265Z,100181.97
2022-08-29T16:34:10.934Z,100181.59
2022-08-29T16:37:00.692Z,100180.41
2022-08-29T16:39:50.647Z,100178.59
2022-08-29T16:42:40.234Z,100185.53
2022-08-29T16:45:28.875Z,100178.69
2022-08-29T16:48:18.032Z,100184.88
2022-08-29T16:51:07.200Z,100183.06
2022-08-29T16:53:56.530Z,100172.66
2022-08-29T16:56:46.691Z,100167.09
2022-08-29T16:59:37.246Z,100169.22
2022-08-29T17:02:25.996Z,100167.03
2022-08-29T17:05:14.600Z,100165.22
2022-08-29T17:08:02.291Z,100173.59
2022-08-29T17:10:49.874Z,100163.16
2022-08-29T17:13:40.899Z,100170.09
2022-08-29T17:16:29.670Z,100171.22
2022-08-29T17:19:19.251Z,100155.69
2022-08-29T17:22:10.140Z,100172.66
2022-08-29T17:25:01.956Z,100169.44
2022-08-29T17:28:14.087Z,100167.41
2022-08-29T17:31:01.056Z,100166.50
2022-08-29T17:33:49.777Z,100163.00
2022-08-29T17:36:39.783Z,100163.59
2022-08-29T17:39:28.358Z,100180.56
2022-08-29T17:42:18.670Z,100165.13
2022-08-29T17:45:08.787Z,100172.44
2022-08-29T17:47:58.878Z,100169.31
2022-08-29T17:50:47.591Z,100175.25
2022-08-29T17:53:36.297Z,100175.94
2022-08-29T17:56:29.295Z,100177.28
2022-08-29T17:59:18.988Z,100140.97
2022-08-29T18:02:08.391Z,100178.28
2022-08-29T18:04:58.490Z,100174.91
2022-08-29T18:07:47.034Z,100182.69
2022-08-29T18:10:37.214Z,100183.69
2022-08-29T18:13:25.764Z,100175.81
2022-08-29T18:16:14.936Z,100185.25
2022-08-29T18:19:03.737Z,100168.25
2022-08-29T18:21:55.249Z,100174.94
2022-08-29T18:24:43.812Z,100184.50
2022-08-29T18:27:32.468Z,100182.63
2022-08-29T18:30:21.408Z,100182.72
2022-08-29T18:33:09.978Z,100189.69
2022-08-29T18:35:58.579Z,100192.00
2022-08-29T18:38:49.395Z,100198.72
2022-08-29T18:41:38.121Z,100196.88
2022-08-29T18:44:26.716Z,100199.78
2022-08-29T18:47:15.257Z,100199.63
2022-08-29T18:50:24.850Z,100196.44
2022-08-29T18:53:15.733Z,100207.75
2022-08-29T18:56:06.058Z,100193.91
2022-08-29T18:58:58.743Z,100221.31
2022-08-29T19:01:47.759Z,100220.06
2022-08-29T19:04:36.337Z,100227.22
2022-08-29T19:07:24.874Z,100214.69
2022-08-29T19:10:13.487Z,100222.50
2022-08-29T19:13:03.931Z,100223.13
2022-08-29T19:15:52.623Z,100224.38
2022-08-29T19:18:41.524Z,100205.00
2022-08-29T19:21:29.149Z,100224.97
2022-08-29T19:24:17.693Z,100223.47
2022-08-29T19:27:14.253Z,100227.06
2022-08-29T19:30:14.095Z,100193.09
2022-08-29T19:33:02.693Z,100200.72
2022-08-29T19:35:53.568Z,100235.75
2022-08-29T19:38:42.563Z,100229.34
2022-08-29T19:41:31.138Z,100220.91
2022-08-29T19:44:19.759Z,100234.56
2022-08-29T19:47:09.684Z,100258.69
2022-08-29T19:49:58.292Z,100238.78
2022-08-29T19:52:47.084Z,100247.53
2022-08-29T19:55:36.242Z,100249.72
2022-08-29T19:58:31.154Z,100249.22
2022-08-29T20:01:20.942Z,100250.38
2022-08-29T20:04:10.994Z,100238.91
2022-08-29T20:07:01.410Z,100255.09
2022-08-29T20:09:50.749Z,100262.97
2022-08-29T20:12:39.269Z,100264.44
2022-08-29T20:15:30.524Z,100270.19
2022-08-29T20:18:19.808Z,100264.19
2022-08-29T20:21:10.511Z,100268.31
2022-08-29T20:23:59.548Z,100270.00
2022-08-29T20:26:50.141Z,100268.09
2022-08-29T20:29:38.708Z,100277.91
2022-08-29T20:32:27.277Z,100278.75
2022-08-29T20:35:36.578Z,100279.56
2022-08-29T20:38:25.616Z,100284.47
2022-08-29T20:41:14.193Z,100279.53
2022-08-29T20:44:10.883Z,100269.13
2022-08-29T20:46:59.520Z,100292.34
2022-08-29T20:49:49.450Z,100281.16
2022-08-29T20:52:38.610Z,100294.50
2022-08-29T20:55:28.536Z,100295.03
2022-08-29T20:58:17.081Z,100301.56
2022-08-29T21:01:07.906Z,100289.25
2022-08-29T21:04:14.573Z,100285.16
2022-08-29T21:07:12.177Z,100293.56
2022-08-29T21:10:02.086Z,100301.16
2022-08-29T21:12:52.252Z,100276.28
2022-08-29T21:15:42.222Z,100305.72
2022-08-29T21:18:31.087Z,100298.63
2022-08-29T21:21:22.988Z,100241.22
2022-08-29T21:24:13.446Z,100307.00
2022-08-29T21:27:02.051Z,100305.06
2022-08-29T21:29:51.983Z,100306.94
2022-08-29T21:32:40.554Z,100309.94
2022-08-29T21:35:29.385Z,100308.56
2022-08-29T21:38:18.275Z,100311.00
2022-08-29T21:41:09.744Z,100309.88
2022-08-29T21:43:58.774Z,100315.03
2022-08-29T21:46:48.715Z,100307.16
2022-08-29T21:49:37.508Z,100305.22
2022-08-29T21:52:26.118Z,100311.66
2022-08-29T21:55:14.900Z,100306.06
2022-08-29T21:58:03.701Z,100319.41
2022-08-29T22:00:52.612Z,100316.34
2022-08-29T22:03:42.529Z,100314.97
2022-08-29T22:06:33.216Z,100315.81
2022-08-29T22:09:21.892Z,100320.16
2022-08-29T22:12:10.460Z,100317.44
2022-08-29T22:15:16.334Z,100326.41
2022-08-29T22:18:06.065Z,100327.25
2022-08-29T22:20:56.006Z,100318.47
2022-08-29T22:23:45.541Z,100316.22
2022-08-29T22:26:34.614Z,100327.69
2022-08-29T22:29:23.210Z,100320.28
2022-08-29T22:32:11.774Z,100325.47
2022-08-29T22:35:00.691Z,100309.06
2022-08-29T22:37:54.224Z,100324.34
2022-08-29T22:40:44.310Z,100313.00
2022-08-29T22:43:32.903Z,100322.88
2022-08-29T22:46:24.115Z,100305.91
2022-08-29T22:49:12.715Z,100313.84
2022-08-29T22:52:01.380Z,100317.66
2022-08-29T22:54:51.241Z,100317.03
2022-08-29T22:57:39.961Z,100317.31
2022-08-29T23:00:28.482Z,100310.16
2022-08-29T23:03:17.423Z,100316.72
2022-08-29T23:06:06.254Z,100311.53
2022-08-29T23:08:55.458Z,100288.47
2022-08-29T23:11:45.404Z,100302.91
2022-08-29T23:14:35.645Z,100123.63
2022-08-29T23:17:24.387Z,100305.19
2022-08-29T23:20:14.510Z,100304.56
2022-08-29T23:23:03.073Z,100298.19
2022-08-29T23:25:57.229Z,100299.03
2022-08-29T23:28:47.504Z,100299.44
2022-08-29T23:31:36.079Z,100295.59
2022-08-29T23:34:24.664Z,100282.44
2022-08-29T23:37:13.347Z,100157.81
2022-08-29T23:40:02.542Z,100305.91
2022-08-29T23:42:51.129Z,100277.22
2022-08-29T23:45:41.035Z,100297.88
2022-08-29T23:48:30.240Z,100305.69
2022-08-29T23:51:19.267Z,100292.97
2022-08-29T23:54:08.218Z,100308.09
2022-08-29T23:56:56.997Z,100284.84
